Time;durP1;ratioP1;P1;durP2;ratioP2;P2;SDS_P1;SDS_P2;PMS_P1;PMS_P2;Temp;Humidity;BMP_temperature;BMP_pressure;BME280_temperature;BME280_humidity;BME280_pressure;Samples;Min_cycle;Max_cycle;Signal;HPM_P1;HPM_P2
2023/08/23 00:01:07;;;;;;;5.20;1.80;;;;;;;;;;5033360;28;20410;-59
2023/08/23 00:03:33;;;;;;;3.53;1.30;;;;;;;;;;5033857;28;21208;-58
2023/08/23 00:05:58;;;;;;;2.87;1.50;;;;;;;;;;5036832;28;20496;-59
2023/08/23 00:08:23;;;;;;;3.77;1.20;;;;;;;;;;5041917;28;20397;-58
2023/08/23 00:10:54;;;;;;;4.00;1.60;;;;;;;;;;5041195;28;20448;-58
2023/08/23 00:13:20;;;;;;;4.60;1.50;;;;;;;;;;5040868;28;20495;-59
2023/08/23 00:15:46;;;;;;;3.33;1.48;;;;;;;;;;5042172;28;20477;-59
2023/08/23 00:18:11;;;;;;;3.55;1.42;;;;;;;;;;5041667;28;20495;-59
2023/08/23 00:20:36;;;;;;;4.07;1.50;;;;;;;;;;5039892;28;20405;-58
2023/08/23 00:23:01;;;;;;;4.20;1.60;;;;;;;;;;5033827;28;20397;-58
2023/08/23 00:25:27;;;;;;;4.43;1.60;;;;;;;;;;5033677;28;20395;-58
2023/08/23 00:27:52;;;;;;;4.53;1.67;;;;;;;;;;5033623;28;20511;-58
2023/08/23 00:30:17;;;;;;;3.00;1.40;;;;;;;;;;5040910;28;20401;-58
2023/08/23 00:32:42;;;;;;;6.23;1.70;;;;;;;;;;5042434;28;20408;-58
2023/08/23 00:35:08;;;;;;;6.30;1.80;;;;;;;;;;5040054;28;20409;-59
2023/08/23 00:37:33;;;;;;;5.23;1.90;;;;;;;;;;5041853;28;21424;-59
2023/08/23 00:39:58;;;;;;;4.60;1.77;;;;;;;;;;5041647;28;20442;-58
2023/08/23 00:42:24;;;;;;;3.83;1.50;;;;;;;;;;5040712;28;20401;-59
2023/08/23 00:44:49;;;;;;;5.27;1.60;;;;;;;;;;5036174;28;20405;-59
2023/08/23 00:47:14;;;;;;;3.07;1.53;;;;;;;;;;5032148;28;20465;-59
2023/08/23 00:49:40;;;;;;;5.77;2.00;;;;;;;;;;5033313;28;20432;-58
2023/08/23 00:52:05;;;;;;;5.80;2.00;;;;;;;;;;5020453;28;20455;-59
2023/08/23 00:54:30;;;;;;;5.63;2.00;;;;;;;;;;5040492;28;20396;-59
2023/08/23 00:56:56;;;;;;;3.47;1.60;;;;;;;;;;5040895;28;20408;-58
2023/08/23 00:59:22;;;;;;;4.63;1.63;;;;;;;;;;5044165;28;20412;-59
2023/08/23 01:01:47;;;;;;;4.93;1.50;;;;;;;;;;5043072;28;20772;-59
2023/08/23 01:04:12;;;;;;;3.93;1.60;;;;;;;;;;5039151;28;20422;-59
2023/08/23 01:06:39;;;;;;;2.77;1.40;;;;;;;;;;5041214;28;21086;-58
2023/08/23 01:09:11;;;;;;;3.47;1.58;;;;;;;;;;5036843;28;20416;-59
2023/08/23 01:11:41;;;;;;;4.10;1.60;;;;;;;;;;5042078;28;20402;-58
2023/08/23 01:14:14;;;;;;;2.58;1.40;;;;;;;;;;5047391;28;21166;-58
2023/08/23 01:16:40;;;;;;;4.53;1.90;;;;;;;;;;5023082;28;20873;-58
2023/08/23 01:19:09;;;;;;;3.77;1.77;;;;;;;;;;5034108;28;20413;-59
2023/08/23 01:21:36;;;;;;;2.88;1.40;;;;;;;;;;5044535;28;20407;-58
2023/08/23 01:24:08;;;;;;;4.03;1.40;;;;;;;;;;5043058;28;20814;-58
2023/08/23 01:26:33;;;;;;;3.92;1.52;;;;;;;;;;5030387;28;20512;-58
2023/08/23 01:28:58;;;;;;;4.20;1.80;;;;;;;;;;5044296;28;20532;-58
2023/08/23 01:31:24;;;;;;;3.23;1.40;;;;;;;;;;5041595;28;20389;-58
2023/08/23 01:33:54;;;;;;;3.77;1.70;;;;;;;;;;5037152;28;20432;-58
2023/08/23 01:36:24;;;;;;;4.18;1.50;;;;;;;;;;5034696;28;20557;-58
2023/08/23 01:38:50;;;;;;;3.42;1.60;;;;;;;;;;5020991;28;20400;-58
2023/08/23 01:41:15;;;;;;;3.22;1.55;;;;;;;;;;5026276;28;20500;-58
2023/08/23 01:43:41;;;;;;;6.17;1.60;;;;;;;;;;5044225;28;20400;-58
2023/08/23 01:46:06;;;;;;;5.53;1.80;;;;;;;;;;5025329;28;20489;-59
2023/08/23 01:48:31;;;;;;;4.43;1.80;;;;;;;;;;5043997;28;20463;-58
2023/08/23 01:50:57;;;;;;;3.77;1.67;;;;;;;;;;5042797;28;20395;-58
2023/08/23 01:53:22;;;;;;;3.57;1.80;;;;;;;;;;5043182;28;21385;-58
2023/08/23 01:55:47;;;;;;;3.53;1.60;;;;;;;;;;5036184;28;20385;-58
2023/08/23 01:58:12;;;;;;;3.93;1.40;;;;;;;;;;5036695;28;20420;-58
2023/08/23 02:00:38;;;;;;;3.13;1.40;;;;;;;;;;5035831;28;21059;-58
2023/08/23 02:03:03;;;;;;;3.20;1.40;;;;;;;;;;5042584;28;20437;-59
2023/08/23 02:05:30;;;;;;;3.93;1.50;;;;;;;;;;5043477;28;20393;-58
2023/08/23 02:07:55;;;;;;;2.50;1.42;;;;;;;;;;5045982;28;20494;-58
2023/08/23 02:10:20;;;;;;;2.83;1.60;;;;;;;;;;5042282;28;20793;-58
2023/08/23 02:12:46;;;;;;;4.57;1.60;;;;;;;;;;5043114;28;20455;-58
2023/08/23 02:15:11;;;;;;;4.27;2.00;;;;;;;;;;5044633;28;20504;-59
2023/08/23 02:17:36;;;;;;;3.30;1.50;;;;;;;;;;5051061;28;20819;-58
2023/08/23 02:20:02;;;;;;;3.60;1.50;;;;;;;;;;5050367;28;20416;-59
2023/08/23 02:22:27;;;;;;;2.70;1.40;;;;;;;;;;5050994;28;20397;-58
2023/08/23 02:24:52;;;;;;;3.50;1.47;;;;;;;;;;5051038;28;21158;-58
2023/08/23 02:27:17;;;;;;;3.33;1.50;;;;;;;;;;5050403;28;20416;-58
2023/08/23 02:29:43;;;;;;;5.53;1.50;;;;;;;;;;5057773;28;20549;-58
2023/08/23 02:32:08;;;;;;;2.80;1.50;;;;;;;;;;5049880;28;20490;-59
2023/08/23 02:34:33;;;;;;;2.43;1.23;;;;;;;;;;5047653;28;20418;-58
2023/08/23 02:36:59;;;;;;;2.23;1.20;;;;;;;;;;5037058;28;20425;-58
2023/08/23 02:39:24;;;;;;;2.43;1.20;;;;;;;;;;5035112;28;20418;-58
2023/08/23 02:41:49;;;;;;;1.73;1.10;;;;;;;;;;5035736;28;21103;-58
2023/08/23 02:44:15;;;;;;;2.10;1.00;;;;;;;;;;5041125;28;20445;-58
2023/08/23 02:46:40;;;;;;;3.60;1.30;;;;;;;;;;5043238;28;20433;-58
2023/08/23 02:49:05;;;;;;;4.00;1.40;;;;;;;;;;5048302;28;20903;-59
2023/08/23 02:51:30;;;;;;;2.67;1.10;;;;;;;;;;5043003;28;20949;-58
2023/08/23 02:53:56;;;;;;;3.10;1.13;;;;;;;;;;5042069;28;20884;-58
2023/08/23 02:56:21;;;;;;;2.90;1.03;;;;;;;;;;5042055;28;20488;-58
2023/08/23 02:58:46;;;;;;;4.90;0.90;;;;;;;;;;5038374;28;20406;-58
2023/08/23 03:01:12;;;;;;;3.20;1.20;;;;;;;;;;5033620;28;20505;-58
2023/08/23 03:03:37;;;;;;;2.90;1.10;;;;;;;;;;5034838;28;20909;-58
2023/08/23 03:06:03;;;;;;;1.57;1.00;;;;;;;;;;5037982;28;20401;-59
2023/08/23 03:08:28;;;;;;;3.83;0.93;;;;;;;;;;5041774;28;20406;-58
2023/08/23 03:11:03;;;;;;;3.03;1.50;;;;;;;;;;5042421;28;20402;-58
2023/08/23 03:13:28;;;;;;;3.83;1.00;;;;;;;;;;5045933;28;20702;-58
2023/08/23 03:15:54;;;;;;;1.87;0.80;;;;;;;;;;5042074;28;20402;-58
2023/08/23 03:18:19;;;;;;;2.22;1.00;;;;;;;;;;5035675;28;20770;-58
2023/08/23 03:20:44;;;;;;;2.20;0.90;;;;;;;;;;5039577;28;20943;-58
2023/08/23 03:23:10;;;;;;;2.20;0.90;;;;;;;;;;5034747;28;20547;-58
2023/08/23 03:25:35;;;;;;;1.83;0.80;;;;;;;;;;5034773;28;20390;-58
2023/08/23 03:28:01;;;;;;;1.10;0.70;;;;;;;;;;5035994;28;21031;-60
2023/08/23 03:30:26;;;;;;;2.17;1.00;;;;;;;;;;5041995;28;20477;-59
2023/08/23 03:32:51;;;;;;;1.80;0.80;;;;;;;;;;5041923;28;20436;-58
2023/08/23 03:35:17;;;;;;;2.57;0.70;;;;;;;;;;5041012;28;20492;-58
2023/08/23 03:37:42;;;;;;;2.27;0.80;;;;;;;;;;5041282;28;20405;-58
2023/08/23 03:40:07;;;;;;;2.03;0.70;;;;;;;;;;5041859;28;20534;-58
2023/08/23 03:42:33;;;;;;;2.13;0.73;;;;;;;;;;5041633;28;20393;-59
2023/08/23 03:44:58;;;;;;;1.43;0.90;;;;;;;;;;5036773;28;20956;-58
2023/08/23 03:47:23;;;;;;;1.63;0.90;;;;;;;;;;5033174;28;20400;-58
2023/08/23 03:49:48;;;;;;;2.70;0.90;;;;;;;;;;5034338;28;20759;-58
2023/08/23 03:52:14;;;;;;;2.13;0.90;;;;;;;;;;5041903;28;20406;-59
2023/08/23 03:54:39;;;;;;;3.03;1.15;;;;;;;;;;5042027;28;20418;-58
2023/08/23 03:57:05;;;;;;;2.20;0.90;;;;;;;;;;5040555;28;20411;-58
2023/08/23 03:59:30;;;;;;;2.50;1.00;;;;;;;;;;5042593;28;20512;-58
2023/08/23 04:01:55;;;;;;;1.93;1.10;;;;;;;;;;5041984;28;20468;-58
2023/08/23 04:04:20;;;;;;;2.83;1.20;;;;;;;;;;5040334;28;20400;-58
2023/08/23 04:06:46;;;;;;;2.30;1.07;;;;;;;;;;5037564;28;20404;-58
2023/08/23 04:09:11;;;;;;;2.53;1.20;;;;;;;;;;5033942;28;20407;-58
2023/08/23 04:11:36;;;;;;;3.30;1.10;;;;;;;;;;5033794;28;20386;-58
2023/08/23 04:14:02;;;;;;;5.10;1.30;;;;;;;;;;5036928;28;20429;-58
2023/08/23 04:16:27;;;;;;;1.48;1.00;;;;;;;;;;5042790;28;20404;-58
2023/08/23 04:18:53;;;;;;;2.20;1.20;;;;;;;;;;5041902;28;20419;-58
2023/08/23 04:21:18;;;;;;;2.63;1.23;;;;;;;;;;5040682;28;20419;-58
2023/08/23 04:23:44;;;;;;;2.80;1.20;;;;;;;;;;5041143;28;20442;-58
2023/08/23 04:26:09;;;;;;;1.80;1.20;;;;;;;;;;5040358;28;21011;-58
2023/08/23 04:28:37;;;;;;;2.93;1.30;;;;;;;;;;5040058;28;20968;-59
2023/08/23 04:31:02;;;;;;;2.50;1.10;;;;;;;;;;5033370;28;20508;-58
2023/08/23 04:33:27;;;;;;;3.57;1.27;;;;;;;;;;5038001;28;20401;-58
2023/08/23 04:35:53;;;;;;;3.50;1.60;;;;;;;;;;5039625;28;20472;-58
2023/08/23 04:38:18;;;;;;;3.30;1.20;;;;;;;;;;5044867;28;20416;-58
2023/08/23 04:40:43;;;;;;;4.87;1.43;;;;;;;;;;5045449;28;20418;-58
2023/08/23 04:43:08;;;;;;;2.75;1.50;;;;;;;;;;5053822;28;20423;-59
2023/08/23 04:45:40;;;;;;;3.33;1.53;;;;;;;;;;5061644;28;20407;-58
2023/08/23 04:48:05;;;;;;;3.55;1.75;;;;;;;;;;5056926;28;20395;-58
2023/08/23 04:50:31;;;;;;;4.90;1.73;;;;;;;;;;5056433;28;20852;-58
2023/08/23 04:52:56;;;;;;;4.77;2.00;;;;;;;;;;5059235;28;20402;-58
2023/08/23 04:55:21;;;;;;;6.80;2.30;;;;;;;;;;5058464;28;20400;-58
2023/08/23 04:57:47;;;;;;;2.87;1.80;;;;;;;;;;5058175;28;21565;-59
2023/08/23 05:00:13;;;;;;;4.57;1.80;;;;;;;;;;5045503;28;20413;-59
2023/08/23 05:02:38;;;;;;;4.43;1.80;;;;;;;;;;5066922;28;20712;-59
2023/08/23 05:05:04;;;;;;;3.90;1.98;;;;;;;;;;5063327;28;20427;-59
2023/08/23 05:07:29;;;;;;;4.60;2.03;;;;;;;;;;5061192;28;20419;-59
2023/08/23 05:09:55;;;;;;;4.70;2.40;;;;;;;;;;5066440;28;20410;-59
2023/08/23 05:12:20;;;;;;;4.10;2.22;;;;;;;;;;5065495;28;20716;-59
2023/08/23 05:14:45;;;;;;;4.60;2.60;;;;;;;;;;5060525;28;20407;-59
2023/08/23 05:17:11;;;;;;;4.17;2.20;;;;;;;;;;5065332;28;20449;-59
2023/08/23 05:19:36;;;;;;;6.77;2.63;;;;;;;;;;5066067;28;20919;-59
2023/08/23 05:22:01;;;;;;;7.73;2.30;;;;;;;;;;5062442;28;20400;-60
2023/08/23 05:24:27;;;;;;;5.67;2.23;;;;;;;;;;5063301;28;20409;-59
2023/08/23 05:26:52;;;;;;;5.73;2.20;;;;;;;;;;5066514;28;20403;-59
2023/08/23 05:29:18;;;;;;;4.70;2.07;;;;;;;;;;5059777;28;20397;-59
2023/08/23 05:31:43;;;;;;;3.80;2.20;;;;;;;;;;5057922;28;20485;-59
2023/08/23 05:34:09;;;;;;;3.53;1.90;;;;;;;;;;5063875;28;20810;-59
2023/08/23 05:36:34;;;;;;;3.90;2.10;;;;;;;;;;5065400;28;20449;-59
2023/08/23 05:39:01;;;;;;;4.43;2.13;;;;;;;;;;5061715;28;20530;-59
2023/08/23 05:41:26;;;;;;;5.65;2.10;;;;;;;;;;5063540;28;20394;-59
2023/08/23 05:43:51;;;;;;;5.47;2.20;;;;;;;;;;5054060;28;20756;-59
2023/08/23 05:46:16;;;;;;;5.73;2.30;;;;;;;;;;5061238;28;20415;-59
2023/08/23 05:48:42;;;;;;;3.50;1.90;;;;;;;;;;5062263;28;20469;-59
2023/08/23 05:51:07;;;;;;;4.20;1.90;;;;;;;;;;5055205;28;20746;-60
2023/08/23 05:53:33;;;;;;;4.73;2.13;;;;;;;;;;5049394;28;20391;-60
2023/08/23 05:55:58;;;;;;;5.47;2.60;;;;;;;;;;5066535;28;20859;-59
2023/08/23 05:58:25;;;;;;;7.63;2.70;;;;;;;;;;5056415;28;20497;-60
2023/08/23 06:00:51;;;;;;;5.20;2.88;;;;;;;;;;5064210;28;20487;-59
2023/08/23 06:03:16;;;;;;;5.28;2.63;;;;;;;;;;5061299;28;20438;-59
2023/08/23 06:05:42;;;;;;;6.43;3.47;;;;;;;;;;5063194;28;20817;-59
2023/08/23 06:08:08;;;;;;;6.77;3.73;;;;;;;;;;5064879;28;20414;-60
2023/08/23 06:10:33;;;;;;;8.60;4.20;;;;;;;;;;5075741;28;20967;-59
2023/08/23 06:12:58;;;;;;;8.47;4.80;;;;;;;;;;5081685;28;20410;-59
2023/08/23 06:15:24;;;;;;;11.00;6.27;;;;;;;;;;5084787;28;20431;-60
2023/08/23 06:17:49;;;;;;;11.43;6.60;;;;;;;;;;5084745;28;20465;-60
2023/08/23 06:20:15;;;;;;;11.35;6.70;;;;;;;;;;5078220;28;20523;-60
2023/08/23 06:22:40;;;;;;;9.23;6.00;;;;;;;;;;5084848;28;20477;-59
2023/08/23 06:25:06;;;;;;;10.63;6.13;;;;;;;;;;5083991;28;20398;-60
2023/08/23 06:27:31;;;;;;;9.37;5.67;;;;;;;;;;5081170;28;20795;-60
2023/08/23 06:29:56;;;;;;;10.07;6.57;;;;;;;;;;5082450;28;20405;-60
2023/08/23 06:32:25;;;;;;;13.90;6.33;;;;;;;;;;5083449;28;21168;-60
2023/08/23 06:34:50;;;;;;;9.15;5.95;;;;;;;;;;5084165;28;20397;-59
2023/08/23 06:37:15;;;;;;;11.13;5.97;;;;;;;;;;5079719;28;20415;-59
2023/08/23 06:39:41;;;;;;;9.33;5.60;;;;;;;;;;5084132;28;20433;-59
2023/08/23 06:42:06;;;;;;;12.17;5.93;;;;;;;;;;5084368;28;20386;-60
2023/08/23 06:44:31;;;;;;;9.17;5.60;;;;;;;;;;5078395;28;20970;-60
2023/08/23 06:46:57;;;;;;;8.00;5.97;;;;;;;;;;5075941;28;20495;-59
2023/08/23 06:49:22;;;;;;;10.70;5.87;;;;;;;;;;5087220;28;20386;-59
2023/08/23 06:51:47;;;;;;;10.00;5.50;;;;;;;;;;5089983;28;20414;-60
2023/08/23 06:54:12;;;;;;;8.57;5.80;;;;;;;;;;5078775;28;20413;-59
2023/08/23 06:56:38;;;;;;;7.67;4.77;;;;;;;;;;5084268;28;20404;-59
2023/08/23 06:59:03;;;;;;;7.18;4.70;;;;;;;;;;5083452;28;20406;-60
2023/08/23 07:01:28;;;;;;;9.57;4.90;;;;;;;;;;5081022;28;20390;-60
2023/08/23 07:03:53;;;;;;;7.83;5.13;;;;;;;;;;5082346;28;20406;-59
2023/08/23 07:06:19;;;;;;;8.70;4.70;;;;;;;;;;5083546;28;20421;-60
2023/08/23 07:08:44;;;;;;;9.75;4.47;;;;;;;;;;5082594;28;20401;-59
2023/08/23 07:11:10;;;;;;;7.43;4.47;;;;;;;;;;5078678;28;20432;-60
2023/08/23 07:13:36;;;;;;;5.80;3.83;;;;;;;;;;5084003;28;20410;-59
2023/08/23 07:16:01;;;;;;;8.15;3.83;;;;;;;;;;5083395;28;20402;-60
2023/08/23 07:18:28;;;;;;;5.07;3.20;;;;;;;;;;5079688;28;20767;-59
2023/08/23 07:20:53;;;;;;;6.38;3.70;;;;;;;;;;5082744;28;20519;-60
2023/08/23 07:23:19;;;;;;;8.38;3.78;;;;;;;;;;5072616;28;20957;-60
2023/08/23 07:25:44;;;;;;;6.75;3.70;;;;;;;;;;5061271;28;20407;-60
2023/08/23 07:28:10;;;;;;;6.57;3.90;;;;;;;;;;5059492;28;20395;-59
2023/08/23 07:30:35;;;;;;;7.18;4.22;;;;;;;;;;5055877;28;20962;-59
2023/08/23 07:33:00;;;;;;;8.45;4.18;;;;;;;;;;5063139;28;20439;-59
2023/08/23 07:35:26;;;;;;;7.40;4.50;;;;;;;;;;5057836;28;20414;-59
2023/08/23 07:37:51;;;;;;;7.40;4.17;;;;;;;;;;5063910;28;20480;-59
2023/08/23 07:40:16;;;;;;;9.98;4.90;;;;;;;;;;5062808;28;20423;-59
2023/08/23 07:42:42;;;;;;;6.93;4.20;;;;;;;;;;5057822;28;20959;-59
2023/08/23 07:45:08;;;;;;;8.73;4.80;;;;;;;;;;5054930;28;20401;-60
2023/08/23 07:47:33;;;;;;;7.80;4.88;;;;;;;;;;5063422;28;20416;-59
2023/08/23 07:49:58;;;;;;;6.67;3.93;;;;;;;;;;5060673;28;20959;-59
2023/08/23 07:52:23;;;;;;;7.77;3.60;;;;;;;;;;5059400;28;20397;-60
2023/08/23 07:54:49;;;;;;;6.97;3.60;;;;;;;;;;5062756;28;20404;-59
2023/08/23 07:57:14;;;;;;;9.25;4.30;;;;;;;;;;5062341;28;20481;-59
2023/08/23 07:59:39;;;;;;;7.93;3.90;;;;;;;;;;5057970;28;20516;-59
2023/08/23 08:02:05;;;;;;;7.87;4.00;;;;;;;;;;5053623;28;20492;-60
2023/08/23 08:04:31;;;;;;;8.17;4.20;;;;;;;;;;5063011;28;20453;-59
2023/08/23 08:06:56;;;;;;;7.40;4.20;;;;;;;;;;5059438;28;20408;-59
2023/08/23 08:09:22;;;;;;;8.77;4.00;;;;;;;;;;5060842;28;20392;-59
2023/08/23 08:11:47;;;;;;;7.37;3.60;;;;;;;;;;5062931;28;20477;-59
2023/08/23 08:14:13;;;;;;;6.17;3.53;;;;;;;;;;5061126;28;20949;-60
2023/08/23 08:16:38;;;;;;;5.90;3.40;;;;;;;;;;5059636;28;20409;-59
2023/08/23 08:19:03;;;;;;;8.23;3.60;;;;;;;;;;5062642;28;20404;-59
2023/08/23 08:21:28;;;;;;;6.37;3.60;;;;;;;;;;5063104;28;20384;-59
2023/08/23 08:23:54;;;;;;;7.30;3.70;;;;;;;;;;5058022;28;20411;-59
2023/08/23 08:26:19;;;;;;;8.80;3.67;;;;;;;;;;5061763;28;20799;-59
2023/08/23 08:28:45;;;;;;;6.93;3.30;;;;;;;;;;5062515;28;20430;-59
2023/08/23 08:31:11;;;;;;;6.03;3.28;;;;;;;;;;5058372;28;20809;-59
2023/08/23 08:33:37;;;;;;;5.50;3.33;;;;;;;;;;5061047;28;20893;-60
2023/08/23 08:36:02;;;;;;;6.80;3.75;;;;;;;;;;5062021;28;20408;-60
2023/08/23 08:38:27;;;;;;;6.23;3.20;;;;;;;;;;5061162;28;20430;-59
2023/08/23 08:40:53;;;;;;;7.53;3.60;;;;;;;;;;5058080;28;20430;-60
2023/08/23 08:43:18;;;;;;;8.10;3.70;;;;;;;;;;5062498;28;20941;-59
2023/08/23 08:45:44;;;;;;;7.23;3.03;;;;;;;;;;5061504;28;20399;-59
2023/08/23 08:48:09;;;;;;;7.20;2.80;;;;;;;;;;5048515;28;20494;-59
2023/08/23 08:50:35;;;;;;;5.73;2.70;;;;;;;;;;5051655;28;20411;-59
2023/08/23 08:53:00;;;;;;;7.13;3.00;;;;;;;;;;5062600;28;20494;-59
2023/08/23 08:55:25;;;;;;;4.67;2.60;;;;;;;;;;5059824;28;20904;-59
2023/08/23 08:57:53;;;;;;;6.37;3.00;;;;;;;;;;5059669;28;20502;-60
2023/08/23 09:00:21;;;;;;;5.78;2.72;;;;;;;;;;5080843;28;20433;-59
2023/08/23 09:02:46;;;;;;;6.82;2.80;;;;;;;;;;5083220;28;20445;-59
2023/08/23 09:05:12;;;;;;;5.17;2.60;;;;;;;;;;5059063;28;20894;-60
2023/08/23 09:07:37;;;;;;;5.30;2.63;;;;;;;;;;5082331;28;20409;-59
2023/08/23 09:10:03;;;;;;;8.73;2.43;;;;;;;;;;5082280;28;20444;-60
2023/08/23 09:12:28;;;;;;;7.45;2.63;;;;;;;;;;5078927;28;20955;-60
2023/08/23 09:14:54;;;;;;;5.80;2.43;;;;;;;;;;5080476;28;20398;-59
2023/08/23 09:17:20;;;;;;;5.53;2.10;;;;;;;;;;5082550;28;20398;-59
2023/08/23 09:19:45;;;;;;;4.85;1.92;;;;;;;;;;5083218;28;20484;-60
2023/08/23 09:22:11;;;;;;;6.53;2.13;;;;;;;;;;5081704;28;20421;-60
2023/08/23 09:24:36;;;;;;;7.00;2.40;;;;;;;;;;5086594;28;20433;-60
2023/08/23 09:27:01;;;;;;;4.20;2.00;;;;;;;;;;5085350;28;20737;-60
2023/08/23 09:29:27;;;;;;;3.63;1.67;;;;;;;;;;5079748;28;20409;-60
2023/08/23 09:31:52;;;;;;;3.40;1.70;;;;;;;;;;5068208;28;20837;-59
2023/08/23 09:34:17;;;;;;;3.97;1.87;;;;;;;;;;5085753;28;20406;-60
2023/08/23 09:36:43;;;;;;;4.47;1.90;;;;;;;;;;5081136;28;20402;-60
2023/08/23 09:39:10;;;;;;;4.43;1.73;;;;;;;;;;5083422;28;20462;-60
2023/08/23 09:41:36;;;;;;;4.82;2.00;;;;;;;;;;5053400;28;20404;-59
2023/08/23 09:44:02;;;;;;;3.50;1.73;;;;;;;;;;5045609;28;20913;-61
2023/08/23 09:46:27;;;;;;;4.57;1.70;;;;;;;;;;5060968;28;20409;-59
2023/08/23 09:48:54;;;;;;;5.63;1.90;;;;;;;;;;5047281;28;20388;-59
2023/08/23 09:51:25;;;;;;;3.27;1.60;;;;;;;;;;5083902;28;20967;-60
2023/08/23 09:53:53;;;;;;;4.22;1.80;;;;;;;;;;5061981;28;21192;-60
2023/08/23 09:56:18;;;;;;;4.78;2.00;;;;;;;;;;5081822;28;20398;-60
2023/08/23 09:58:44;;;;;;;3.97;1.60;;;;;;;;;;5085685;28;20423;-59
2023/08/23 10:01:09;;;;;;;3.17;1.50;;;;;;;;;;5065105;28;20425;-60
2023/08/23 10:03:34;;;;;;;3.20;1.60;;;;;;;;;;5081649;28;20409;-60
2023/08/23 10:06:00;;;;;;;5.90;1.80;;;;;;;;;;5085712;28;20408;-59
2023/08/23 10:08:25;;;;;;;3.43;1.87;;;;;;;;;;5067047;28;20406;-59
2023/08/23 10:10:52;;;;;;;4.87;2.00;;;;;;;;;;5079769;28;20394;-59
2023/08/23 10:13:17;;;;;;;4.33;1.70;;;;;;;;;;5084609;28;20459;-59
2023/08/23 10:15:42;;;;;;;3.60;1.47;;;;;;;;;;5067254;28;20417;-59
2023/08/23 10:18:08;;;;;;;4.67;1.30;;;;;;;;;;5080392;28;20408;-60
2023/08/23 10:20:34;;;;;;;5.13;1.98;;;;;;;;;;5082938;28;20406;-59
2023/08/23 10:23:00;;;;;;;4.13;1.70;;;;;;;;;;5084218;28;20398;-59
2023/08/23 10:25:25;;;;;;;2.83;1.53;;;;;;;;;;5083098;28;20390;-60
2023/08/23 10:27:52;;;;;;;3.80;1.60;;;;;;;;;;5080873;28;20473;-59
2023/08/23 10:30:24;;;;;;;6.13;1.80;;;;;;;;;;5063060;28;20406;-60
2023/08/23 10:32:50;;;;;;;3.57;1.50;;;;;;;;;;5083806;28;20393;-59
2023/08/23 10:35:22;;;;;;;4.63;1.50;;;;;;;;;;5081010;28;20409;-59
2023/08/23 10:37:47;;;;;;;5.50;2.03;;;;;;;;;;5081966;28;20424;-59
2023/08/23 10:40:13;;;;;;;3.90;1.67;;;;;;;;;;5084466;28;20416;-59
2023/08/23 10:42:38;;;;;;;5.57;2.00;;;;;;;;;;5064265;28;20390;-59
2023/08/23 10:45:04;;;;;;;5.50;2.00;;;;;;;;;;5076375;28;20765;-60
2023/08/23 10:47:30;;;;;;;5.83;2.23;;;;;;;;;;5083935;28;20404;-59
2023/08/23 10:49:57;;;;;;;5.33;2.00;;;;;;;;;;5066789;28;20393;-59
2023/08/23 10:52:22;;;;;;;5.28;2.33;;;;;;;;;;5060802;28;20425;-59
2023/08/23 10:54:47;;;;;;;4.97;1.90;;;;;;;;;;5077298;28;20885;-59
2023/08/23 10:57:13;;;;;;;5.70;2.55;;;;;;;;;;5065524;28;20409;-60
2023/08/23 10:59:38;;;;;;;5.97;2.77;;;;;;;;;;5081136;28;20489;-59
2023/08/23 11:02:03;;;;;;;5.23;1.90;;;;;;;;;;5081061;28;20458;-60
2023/08/23 11:04:29;;;;;;;4.57;1.90;;;;;;;;;;5084356;28;20929;-59
2023/08/23 11:06:54;;;;;;;3.53;1.53;;;;;;;;;;5067483;28;20394;-59
2023/08/23 11:09:20;;;;;;;5.03;1.87;;;;;;;;;;5058445;28;20382;-60
2023/08/23 11:11:45;;;;;;;5.77;1.57;;;;;;;;;;5083233;28;20405;-59
2023/08/23 11:14:11;;;;;;;3.63;1.50;;;;;;;;;;5083387;28;20884;-59
2023/08/23 11:16:38;;;;;;;4.73;1.67;;;;;;;;;;5079864;28;20406;-60
2023/08/23 11:19:04;;;;;;;3.50;1.60;;;;;;;;;;5081389;28;20399;-60
2023/08/23 11:21:31;;;;;;;3.07;1.40;;;;;;;;;;5082986;28;20417;-60
2023/08/23 11:23:57;;;;;;;3.63;1.33;;;;;;;;;;5081946;28;20405;-59
2023/08/23 11:26:22;;;;;;;4.10;1.40;;;;;;;;;;5079854;28;20398;-59
2023/08/23 11:28:47;;;;;;;4.93;1.40;;;;;;;;;;5083322;28;20444;-59
2023/08/23 11:31:13;;;;;;;3.57;1.30;;;;;;;;;;5064731;28;20496;-60
2023/08/23 11:33:38;;;;;;;3.87;1.60;;;;;;;;;;5058505;28;20431;-59
2023/08/23 11:36:04;;;;;;;4.53;1.50;;;;;;;;;;5062925;28;20805;-60
2023/08/23 11:38:29;;;;;;;4.67;1.43;;;;;;;;;;5067618;28;20714;-59
2023/08/23 11:40:55;;;;;;;7.23;1.90;;;;;;;;;;5079935;28;20973;-60
2023/08/23 11:43:20;;;;;;;5.00;1.70;;;;;;;;;;5061980;28;20400;-59
2023/08/23 11:45:45;;;;;;;3.73;1.73;;;;;;;;;;5077362;28;20527;-59
2023/08/23 11:48:14;;;;;;;4.20;1.70;;;;;;;;;;5078540;28;20406;-60
2023/08/23 11:50:39;;;;;;;4.30;1.50;;;;;;;;;;5041213;28;20407;-59
2023/08/23 11:53:05;;;;;;;4.03;1.70;;;;;;;;;;5062428;28;20411;-60
2023/08/23 11:55:30;;;;;;;2.87;1.40;;;;;;;;;;5062708;28;20961;-59
2023/08/23 11:57:56;;;;;;;3.30;1.40;;;;;;;;;;5040944;28;20400;-60
2023/08/23 12:00:21;;;;;;;4.33;1.50;;;;;;;;;;5061810;28;20808;-59
2023/08/23 12:02:49;;;;;;;5.60;1.90;;;;;;;;;;5061117;28;22377;-59
2023/08/23 12:05:15;;;;;;;4.50;1.77;;;;;;;;;;5042828;28;20478;-59
2023/08/23 12:07:40;;;;;;;4.43;1.48;;;;;;;;;;5060276;28;20458;-59
2023/08/23 12:10:08;;;;;;;4.60;1.50;;;;;;;;;;5062465;28;20981;-60
2023/08/23 12:12:34;;;;;;;3.20;1.40;;;;;;;;;;5063457;28;20392;-59
2023/08/23 12:14:59;;;;;;;4.75;1.70;;;;;;;;;;5057497;28;20414;-59
2023/08/23 12:17:24;;;;;;;4.13;1.23;;;;;;;;;;5062041;28;20599;-59
2023/08/23 12:19:50;;;;;;;2.70;1.40;;;;;;;;;;5078591;28;20432;-59
2023/08/23 12:22:15;;;;;;;4.30;1.60;;;;;;;;;;5079030;28;20406;-59
2023/08/23 12:24:41;;;;;;;3.40;1.60;;;;;;;;;;5080965;28;20465;-59
2023/08/23 12:27:06;;;;;;;4.03;1.70;;;;;;;;;;5082533;28;20410;-59
2023/08/23 12:29:32;;;;;;;4.00;1.30;;;;;;;;;;5075640;28;20908;-59
2023/08/23 12:31:57;;;;;;;3.85;1.45;;;;;;;;;;5076242;28;20428;-59
2023/08/23 12:34:23;;;;;;;3.63;1.23;;;;;;;;;;5082343;28;20406;-60
2023/08/23 12:36:48;;;;;;;4.63;1.30;;;;;;;;;;5083447;28;20385;-59
2023/08/23 12:39:16;;;;;;;3.13;1.00;;;;;;;;;;5089445;28;20477;-60
2023/08/23 12:41:41;;;;;;;4.75;1.20;;;;;;;;;;5078300;28;20413;-59
2023/08/23 12:44:06;;;;;;;5.45;1.05;;;;;;;;;;5079164;28;20459;-60
2023/08/23 12:46:32;;;;;;;2.93;0.90;;;;;;;;;;5081901;28;20386;-59
2023/08/23 12:48:57;;;;;;;3.20;1.30;;;;;;;;;;5077109;28;20816;-59
2023/08/23 12:51:24;;;;;;;3.67;1.10;;;;;;;;;;5081921;28;20390;-59
2023/08/23 12:53:49;;;;;;;5.55;1.23;;;;;;;;;;5076539;28;20510;-59
2023/08/23 12:56:15;;;;;;;6.00;0.97;;;;;;;;;;5081498;28;20394;-60
2023/08/23 12:58:40;;;;;;;4.13;1.10;;;;;;;;;;5084554;28;20884;-59
2023/08/23 13:01:05;;;;;;;4.20;1.20;;;;;;;;;;5068839;28;20435;-60
2023/08/23 13:03:30;;;;;;;3.03;0.87;;;;;;;;;;5064695;28;20400;-59
2023/08/23 13:05:56;;;;;;;3.40;0.97;;;;;;;;;;5067383;28;20898;-59
2023/08/23 13:08:21;;;;;;;3.60;1.27;;;;;;;;;;5072796;28;20464;-59
2023/08/23 13:10:46;;;;;;;3.70;1.10;;;;;;;;;;5062532;28;20455;-59
2023/08/23 13:13:12;;;;;;;1.90;0.80;;;;;;;;;;5076606;28;20906;-60
2023/08/23 13:15:37;;;;;;;2.28;0.90;;;;;;;;;;5085526;28;20410;-59
2023/08/23 13:18:03;;;;;;;2.80;0.90;;;;;;;;;;5080991;28;21028;-59
2023/08/23 13:20:28;;;;;;;4.80;1.30;;;;;;;;;;5085625;28;20483;-59
2023/08/23 13:22:55;;;;;;;4.07;1.17;;;;;;;;;;5086667;28;20410;-59
2023/08/23 13:25:20;;;;;;;3.30;1.10;;;;;;;;;;5080318;28;20385;-59
2023/08/23 13:27:45;;;;;;;6.93;1.47;;;;;;;;;;5066705;28;20783;-59
2023/08/23 13:30:11;;;;;;;3.55;1.02;;;;;;;;;;5078057;28;20398;-59
2023/08/23 13:32:36;;;;;;;2.22;0.80;;;;;;;;;;5067067;28;20452;-60
2023/08/23 13:35:02;;;;;;;3.80;0.90;;;;;;;;;;5037711;28;20920;-59
2023/08/23 13:37:27;;;;;;;3.20;0.80;;;;;;;;;;5041056;28;20405;-59
2023/08/23 13:39:52;;;;;;;3.27;0.90;;;;;;;;;;5042120;28;20912;-59
2023/08/23 13:42:17;;;;;;;2.73;1.00;;;;;;;;;;5048803;28;20440;-59
2023/08/23 13:44:43;;;;;;;2.90;1.07;;;;;;;;;;5048710;28;21378;-59
2023/08/23 13:47:09;;;;;;;2.73;1.10;;;;;;;;;;5047632;28;20582;-59
2023/08/23 13:49:34;;;;;;;3.15;1.10;;;;;;;;;;5047054;28;21206;-59
2023/08/23 13:51:59;;;;;;;2.50;0.95;;;;;;;;;;5048503;28;20405;-59
2023/08/23 13:54:25;;;;;;;4.03;1.20;;;;;;;;;;5047181;28;20405;-59
2023/08/23 13:56:50;;;;;;;4.47;1.20;;;;;;;;;;5041224;28;20970;-59
2023/08/23 13:59:17;;;;;;;3.90;1.10;;;;;;;;;;5040069;28;20760;-59
2023/08/23 14:01:42;;;;;;;2.95;1.20;;;;;;;;;;5040956;28;20417;-59
2023/08/23 14:04:07;;;;;;;3.10;1.00;;;;;;;;;;5045310;28;20405;-59
2023/08/23 14:06:33;;;;;;;3.83;1.10;;;;;;;;;;5049176;28;20409;-59
2023/08/23 14:08:58;;;;;;;3.13;1.10;;;;;;;;;;5047558;28;20906;-59
2023/08/23 14:11:23;;;;;;;2.97;1.10;;;;;;;;;;5047869;28;20408;-59
2023/08/23 14:13:48;;;;;;;3.07;1.20;;;;;;;;;;5049186;28;20406;-60
2023/08/23 14:16:14;;;;;;;1.88;0.80;;;;;;;;;;5047472;28;20416;-59
2023/08/23 14:18:39;;;;;;;5.50;1.30;;;;;;;;;;5043360;28;20890;-59
2023/08/23 14:21:04;;;;;;;3.73;1.30;;;;;;;;;;5038522;28;20908;-59
2023/08/23 14:23:31;;;;;;;5.27;1.20;;;;;;;;;;5042597;28;21511;-59
2023/08/23 14:25:58;;;;;;;3.10;0.98;;;;;;;;;;5044297;28;20409;-59
2023/08/23 14:28:23;;;;;;;4.35;1.33;;;;;;;;;;5046508;28;20393;-59
2023/08/23 14:30:48;;;;;;;5.73;1.60;;;;;;;;;;5048719;28;20417;-59
2023/08/23 14:33:15;;;;;;;5.82;1.30;;;;;;;;;;5027136;28;20496;-59